createdAt,value
2018-05-03T00:02:19.634Z,12.70
2018-05-03T00:05:42.829Z,12.70
2018-05-03T00:09:05.274Z,12.70
2018-05-03T00:12:28.482Z,12.70
2018-05-03T00:15:50.920Z,12.70
2018-05-03T00:19:13.366Z,12.70
2018-05-03T00:22:35.825Z,12.60
2018-05-03T00:25:58.270Z,12.60
2018-05-03T00:29:20.718Z,12.60
2018-05-03T00:32:43.161Z,12.50
2018-05-03T00:36:06.361Z,12.50
2018-05-03T00:39:28.802Z,12.50
2018-05-03T00:42:52.031Z,12.60
2018-05-03T00:46:14.460Z,12.60
2018-05-03T00:49:36.911Z,12.60
2018-05-03T00:53:00.109Z,12.50
2018-05-03T00:56:22.558Z,12.50
2018-05-03T00:59:45.780Z,12.50
2018-05-03T01:03:08.226Z,12.50
2018-05-03T01:06:30.663Z,12.50
2018-05-03T01:09:53.106Z,12.50
2018-05-03T01:13:15.553Z,12.50
2018-05-03T01:16:37.998Z,12.40
2018-05-03T01:20:00.446Z,12.50
2018-05-03T01:23:22.914Z,12.40
2018-05-03T01:26:45.355Z,12.40
2018-05-03T01:30:08.563Z,12.30
2018-05-03T01:33:31.003Z,12.30
2018-05-03T01:36:54.214Z,12.30
2018-05-03T01:40:16.649Z,12.30
2018-05-03T01:43:39.869Z,12.30
2018-05-03T01:47:02.308Z,12.20
2018-05-03T01:50:25.505Z,12.30
2018-05-03T01:53:47.947Z,12.20
2018-05-03T01:57:11.155Z,12.20
2018-05-03T02:00:33.594Z,12.20
2018-05-03T02:03:56.803Z,12.20
2018-05-03T02:07:19.245Z,12.20
2018-05-03T02:10:42.445Z,12.20
2018-05-03T02:14:04.890Z,12.10
2018-05-03T02:17:28.121Z,12.10
2018-05-03T02:20:50.550Z,12.10
2018-05-03T02:24:13.757Z,12.10
2018-05-03T02:27:36.201Z,12.10
2018-05-03T02:30:59.397Z,12.00
2018-05-03T02:34:21.842Z,12.00
2018-05-03T02:37:45.058Z,11.90
2018-05-03T02:41:07.499Z,11.90
2018-05-03T02:44:29.949Z,11.90
2018-05-03T02:47:53.150Z,11.80
2018-05-03T02:51:15.591Z,11.80
2018-05-03T02:54:38.811Z,11.80
2018-05-03T02:58:18.125Z,11.80
2018-05-03T03:02:16.532Z,11.90
2018-05-03T03:05:52.628Z,11.90
2018-05-03T03:09:32.619Z,11.90
2018-05-03T03:17:22.490Z,12.00
2018-05-03T03:21:02.542Z,12.00
2018-05-03T03:24:38.762Z,12.00
2018-05-03T03:28:18.756Z,12.00
2018-05-03T03:31:59.106Z,12.00
2018-05-03T03:39:42.646Z,12.00
2018-05-03T03:43:05.144Z,12.00
2018-05-03T03:46:28.289Z,12.00
2018-05-03T03:49:50.747Z,12.00
2018-05-03T03:53:13.241Z,12.10
2018-05-03T03:56:36.384Z,12.10
2018-05-03T03:59:58.821Z,12.00
2018-05-03T04:03:21.270Z,12.10
2018-05-03T04:06:43.719Z,12.10
2018-05-03T04:10:06.151Z,12.10
2018-05-03T04:13:28.591Z,12.10
2018-05-03T04:16:51.850Z,12.20
2018-05-03T04:20:30.014Z,12.20
2018-05-03T04:24:13.982Z,12.20
2018-05-03T04:27:36.514Z,12.20
2018-05-03T04:30:58.975Z,12.20
2018-05-03T04:34:21.504Z,12.20
2018-05-03T04:37:44.702Z,12.20
2018-05-03T04:41:07.190Z,12.10
2018-05-03T04:44:29.635Z,12.10
2018-05-03T04:47:52.090Z,12.10
2018-05-03T04:51:14.528Z,12.20
2018-05-03T04:54:37.763Z,12.20
2018-05-03T04:58:00.894Z,12.20
2018-05-03T05:01:24.158Z,12.30
2018-05-03T05:04:46.685Z,12.20
2018-05-03T05:08:09.046Z,12.30
2018-05-03T05:11:31.472Z,12.30
2018-05-03T05:14:54.678Z,12.30
2018-05-03T05:18:17.122Z,12.30
2018-05-03T05:21:40.326Z,12.40
2018-05-03T05:25:02.774Z,12.40
2018-05-03T05:28:25.980Z,12.50
2018-05-03T05:31:48.420Z,12.50
2018-05-03T05:35:11.625Z,12.60
2018-05-03T05:38:34.124Z,12.60
2018-05-03T05:41:57.279Z,12.80
2018-05-03T05:45:19.707Z,12.70
2018-05-03T05:48:42.919Z,12.80
2018-05-03T05:52:05.350Z,12.80
2018-05-03T05:55:28.558Z,12.80
2018-05-03T05:58:51.002Z,12.80
2018-05-03T06:02:14.206Z,12.90
2018-05-03T06:05:36.653Z,12.90
2018-05-03T06:08:59.860Z,13.00
2018-05-03T06:12:22.331Z,13.00
2018-05-03T06:15:45.507Z,13.10
2018-05-03T06:19:07.946Z,13.00
2018-05-03T06:22:31.146Z,13.20
2018-05-03T06:25:53.641Z,13.10
2018-05-03T06:29:16.794Z,13.30
2018-05-03T06:32:39.236Z,13.30
2018-05-03T06:36:02.447Z,13.40
2018-05-03T06:39:24.894Z,13.40
2018-05-03T06:42:48.094Z,13.60
2018-05-03T06:46:10.541Z,13.50
2018-05-03T06:49:33.753Z,13.70
2018-05-03T06:52:56.185Z,13.70
2018-05-03T06:56:19.399Z,14.00
2018-05-03T06:59:41.839Z,14.00
2018-05-03T07:03:05.050Z,14.10
2018-05-03T07:06:27.490Z,14.10
2018-05-03T07:09:49.948Z,14.20
2018-05-03T07:13:12.362Z,14.20
2018-05-03T07:16:34.814Z,14.30
2018-05-03T07:19:57.253Z,14.40
2018-05-03T07:23:19.687Z,14.40
2018-05-03T07:26:42.147Z,14.50
2018-05-03T07:30:04.582Z,14.60
2018-05-03T07:33:27.024Z,14.70
2018-05-03T07:36:49.478Z,14.90
2018-05-03T07:40:11.917Z,14.90
2018-05-03T07:43:34.360Z,15.10
2018-05-03T07:46:56.882Z,15.40
2018-05-03T07:50:19.305Z,15.80
2018-05-03T07:53:41.751Z,16.30
2018-05-03T07:57:04.241Z,16.50
2018-05-03T08:00:27.461Z,16.60
2018-05-03T08:03:49.906Z,16.50
2018-05-03T08:07:13.106Z,16.80
2018-05-03T08:10:35.558Z,16.80
2018-05-03T08:13:58.757Z,17.20
2018-05-03T08:17:21.194Z,17.10
2018-05-03T08:20:44.402Z,17.30
2018-05-03T08:24:06.841Z,17.30
2018-05-03T08:27:30.049Z,17.50
2018-05-03T08:30:52.504Z,17.50
2018-05-03T08:34:14.952Z,17.50
2018-05-03T08:37:38.163Z,17.90
2018-05-03T08:41:00.598Z,17.80
2018-05-03T08:44:23.809Z,18.00
2018-05-03T08:47:46.249Z,18.00
2018-05-03T08:51:09.462Z,18.00
2018-05-03T08:54:32.024Z,18.00
2018-05-03T08:57:54.459Z,18.00
2018-05-03T09:01:17.678Z,18.10
2018-05-03T09:04:40.113Z,18.10
2018-05-03T09:08:03.322Z,18.00
2018-05-03T09:11:25.765Z,18.00
2018-05-03T09:14:48.973Z,18.00
2018-05-03T09:18:11.411Z,18.00
2018-05-03T09:21:34.625Z,18.00
2018-05-03T09:24:57.077Z,18.00
2018-05-03T09:28:19.502Z,17.90
2018-05-03T09:31:41.957Z,17.70
2018-05-03T09:35:04.389Z,17.60
2018-05-03T09:38:26.829Z,17.50
2018-05-03T09:41:49.299Z,17.40
2018-05-03T09:45:11.745Z,17.40
2018-05-03T09:48:35.021Z,17.30
2018-05-03T09:51:57.393Z,17.30
2018-05-03T09:55:20.602Z,17.20
2018-05-03T09:58:43.052Z,17.20
2018-05-03T10:02:06.255Z,17.40
2018-05-03T10:05:28.702Z,17.40
2018-05-03T10:08:51.134Z,17.50
2018-05-03T10:12:13.574Z,17.50
2018-05-03T10:15:36.023Z,17.50
2018-05-03T10:18:58.457Z,17.70
2018-05-03T10:22:20.900Z,17.80
2018-05-03T10:25:44.115Z,18.10
2018-05-03T10:29:06.553Z,18.10
2018-05-03T10:32:29.761Z,18.30
2018-05-03T10:35:52.220Z,18.30
2018-05-03T10:39:15.413Z,18.90
2018-05-03T10:42:37.861Z,18.90
2018-05-03T10:46:00.310Z,19.80
2018-05-03T10:49:23.509Z,21.50
2018-05-03T10:52:45.948Z,21.50
2018-05-03T10:56:08.409Z,22.00
2018-05-03T10:59:30.853Z,22.40
2018-05-03T11:02:53.346Z,22.80
2018-05-03T11:06:15.733Z,23.00
2018-05-03T11:09:38.173Z,23.00
2018-05-03T11:13:01.382Z,23.60
2018-05-03T11:16:23.829Z,23.50
2018-05-03T11:19:47.043Z,24.00
2018-05-03T11:23:09.487Z,24.00
2018-05-03T11:26:32.697Z,24.40
2018-05-03T11:29:55.146Z,24.40
2018-05-03T11:33:17.581Z,24.50
2018-05-03T11:36:40.863Z,24.10
2018-05-03T11:40:03.270Z,24.00
2018-05-03T11:43:25.705Z,23.70
2018-05-03T11:46:48.917Z,23.20
2018-05-03T11:50:11.378Z,23.10
2018-05-03T11:53:33.805Z,22.80
2018-05-03T11:56:57.025Z,22.30
2018-05-03T12:00:19.471Z,22.20
2018-05-03T12:03:42.678Z,21.70
2018-05-03T12:07:05.114Z,21.70
2018-05-03T12:10:28.342Z,21.40
2018-05-03T12:13:50.788Z,21.40
2018-05-03T12:17:13.231Z,21.40
2018-05-03T12:20:36.438Z,21.40
2018-05-03T12:23:58.898Z,21.40
2018-05-03T12:27:21.327Z,21.40
2018-05-03T12:30:43.777Z,21.50
2018-05-03T12:34:06.210Z,21.70
2018-05-03T12:37:28.655Z,22.10
2018-05-03T12:40:51.104Z,22.60
2018-05-03T12:44:14.308Z,22.70
2018-05-03T12:47:36.749Z,22.70
2018-05-03T12:50:59.966Z,22.70
2018-05-03T12:54:22.474Z,22.60
2018-05-03T12:57:44.913Z,22.60
2018-05-03T13:01:08.127Z,22.30
2018-05-03T13:04:30.566Z,22.30
2018-05-03T13:07:53.010Z,22.00
2018-05-03T13:11:15.470Z,21.90
2018-05-03T13:14:37.910Z,21.70
2018-05-03T13:18:01.189Z,21.50
2018-05-03T13:21:24.393Z,21.20
2018-05-03T13:24:46.889Z,21.20
2018-05-03T13:28:09.339Z,21.10
2018-05-03T13:31:31.778Z,21.00
2018-05-03T13:34:56.004Z,20.90
2018-05-03T13:38:18.442Z,20.70
2018-05-03T13:41:40.896Z,20.60
2018-05-03T13:45:04.103Z,20.30
2018-05-03T13:48:26.557Z,20.30
2018-05-03T13:51:49.767Z,20.20
2018-05-03T13:55:12.262Z,20.20
2018-05-03T13:58:34.726Z,20.10
2018-05-03T14:01:57.178Z,20.00
2018-05-03T14:05:19.637Z,19.90
2018-05-03T14:08:42.073Z,19.90
2018-05-03T14:12:04.529Z,19.80
2018-05-03T14:15:27.733Z,19.90
2018-05-03T14:18:50.184Z,19.90
2018-05-03T14:22:12.642Z,20.10
2018-05-03T14:25:35.849Z,20.20
2018-05-03T14:28:58.295Z,20.20
2018-05-03T14:32:20.747Z,20.20
2018-05-03T14:35:43.954Z,20.30
2018-05-03T14:39:06.401Z,20.30
2018-05-03T14:42:29.623Z,20.30
2018-05-03T14:45:52.073Z,20.30
2018-05-03T14:49:14.518Z,20.40
2018-05-03T14:52:36.978Z,20.30
2018-05-03T14:55:59.421Z,20.30
2018-05-03T14:59:22.633Z,20.20
2018-05-03T15:02:45.087Z,20.20
2018-05-03T15:06:08.301Z,20.20
2018-05-03T15:09:30.747Z,20.10
2018-05-03T15:12:53.190Z,20.20
2018-05-03T15:16:16.424Z,20.30
2018-05-03T15:19:38.841Z,20.30
2018-05-03T15:23:02.064Z,20.30
2018-05-03T15:26:24.513Z,20.20
2018-05-03T15:29:46.967Z,20.20
2018-05-03T15:33:09.417Z,20.10
2018-05-03T15:36:32.636Z,20.00
2018-05-03T15:39:55.078Z,19.90
2018-05-03T15:43:17.526Z,20.00
2018-05-03T15:46:40.737Z,19.90
2018-05-03T15:50:03.207Z,19.80
2018-05-03T15:53:26.401Z,19.80
2018-05-03T15:56:48.847Z,19.80
2018-05-03T16:00:11.285Z,19.80
2018-05-03T16:03:34.506Z,19.80
2018-05-03T16:06:56.968Z,19.80
2018-05-03T16:10:19.405Z,19.80
2018-05-03T16:13:42.625Z,19.60
2018-05-03T16:17:05.083Z,19.60
2018-05-03T16:20:27.536Z,19.50
2018-05-03T16:23:49.978Z,19.50
2018-05-03T16:27:13.279Z,19.50
2018-05-03T16:30:35.632Z,19.40
2018-05-03T16:33:58.849Z,19.40
2018-05-03T16:37:21.291Z,19.40
2018-05-03T16:40:43.733Z,19.40
2018-05-03T16:44:07.051Z,19.40
2018-05-03T16:47:29.491Z,19.40
2018-05-03T16:50:52.729Z,19.20
2018-05-03T16:54:15.170Z,19.20
2018-05-03T16:57:37.624Z,19.10
2018-05-03T17:01:00.073Z,19.00
2018-05-03T17:04:23.278Z,18.90
2018-05-03T17:07:45.729Z,18.90
2018-05-03T17:11:08.173Z,18.80
2018-05-03T17:14:31.391Z,18.70
2018-05-03T17:17:53.850Z,18.70
2018-05-03T17:21:16.299Z,18.70
2018-05-03T17:24:39.508Z,18.60
2018-05-03T17:28:01.973Z,18.60
2018-05-03T17:31:24.434Z,18.60
2018-05-03T17:34:46.891Z,18.50
2018-05-03T17:38:09.373Z,18.50
2018-05-03T17:41:31.826Z,18.40
2018-05-03T17:44:54.288Z,18.40
2018-05-03T17:48:16.734Z,18.30
2018-05-03T17:51:40.195Z,18.20
2018-05-03T17:55:02.706Z,18.20
2018-05-03T17:58:25.209Z,18.20
2018-05-03T18:01:47.658Z,18.20
2018-05-03T18:05:10.136Z,18.00
2018-05-03T18:08:32.570Z,18.00
2018-05-03T18:11:55.035Z,17.90
2018-05-03T18:15:17.489Z,17.80
2018-05-03T18:22:26.081Z,17.60
2018-05-03T18:25:48.541Z,17.50
2018-05-03T18:29:11.122Z,17.40
2018-05-03T18:32:33.557Z,17.30
2018-05-03T18:35:56.889Z,17.20
2018-05-03T18:39:19.338Z,17.10
2018-05-03T18:42:41.785Z,17.00
2018-05-03T18:46:05.090Z,16.90
2018-05-03T18:49:27.614Z,16.90
2018-05-03T18:52:50.745Z,16.70
2018-05-03T18:56:13.228Z,16.70
2018-05-03T18:59:35.676Z,16.70
2018-05-03T19:02:58.143Z,16.60
2018-05-03T19:06:20.585Z,16.50
2018-05-03T19:09:43.025Z,16.50
2018-05-03T19:13:06.339Z,16.40
2018-05-03T19:16:28.751Z,16.40
2018-05-03T19:19:51.126Z,16.30
2018-05-03T19:23:13.591Z,16.30
2018-05-03T19:26:35.989Z,16.30
2018-05-03T19:29:58.502Z,16.30
2018-05-03T19:33:20.937Z,16.20
2018-05-03T19:36:43.376Z,16.20
2018-05-03T19:40:06.586Z,16.20
2018-05-03T19:43:29.096Z,16.20
2018-05-03T19:46:51.465Z,16.20
2018-05-03T19:50:13.984Z,16.20
2018-05-03T19:53:36.362Z,16.20
2018-05-03T19:56:58.793Z,16.20
2018-05-03T20:00:21.229Z,16.20
2018-05-03T20:03:43.759Z,16.10
2018-05-03T20:07:06.125Z,16.10
2018-05-03T20:10:28.605Z,16.00
2018-05-03T20:13:51.052Z,16.00
2018-05-03T20:17:13.481Z,16.00
2018-05-03T20:20:35.921Z,15.90
2018-05-03T20:23:58.382Z,15.90
2018-05-03T20:27:20.818Z,15.90
2018-05-03T20:30:43.278Z,15.80
2018-05-03T20:34:05.742Z,15.80
2018-05-03T20:37:28.187Z,15.80
2018-05-03T20:40:50.621Z,15.80
2018-05-03T20:44:13.853Z,15.90
2018-05-03T20:47:36.297Z,15.80
2018-05-03T20:50:58.737Z,15.90
2018-05-03T20:54:21.970Z,15.90
2018-05-03T20:57:44.512Z,15.80
2018-05-03T21:01:06.897Z,15.80
2018-05-03T21:04:29.422Z,15.80
2018-05-03T21:07:51.828Z,15.80
2018-05-03T21:11:14.289Z,15.70
2018-05-03T21:14:36.737Z,15.70
2018-05-03T21:17:59.631Z,15.70
2018-05-03T21:21:22.067Z,15.70
2018-05-03T21:24:44.647Z,15.60
2018-05-03T21:28:07.134Z,15.60
2018-05-03T21:31:29.593Z,15.60
2018-05-03T21:34:52.041Z,15.60
2018-05-03T21:38:14.526Z,15.50
2018-05-03T21:41:37.037Z,15.50
2018-05-03T21:44:59.465Z,15.50
2018-05-03T21:48:22.004Z,15.50
2018-05-03T21:51:44.572Z,15.50
2018-05-03T21:55:07.773Z,15.40
2018-05-03T21:58:30.221Z,15.40
2018-05-03T22:01:52.787Z,15.40
2018-05-03T22:05:15.225Z,15.40
2018-05-03T22:08:38.458Z,15.40
2018-05-03T22:12:00.898Z,15.40
2018-05-03T22:15:23.357Z,15.40
2018-05-03T22:18:46.552Z,15.30
2018-05-03T22:22:08.997Z,15.30
2018-05-03T22:25:31.441Z,15.40
2018-05-03T22:28:54.661Z,15.30
2018-05-03T22:32:17.093Z,15.30
2018-05-03T22:35:40.303Z,15.30
2018-05-03T22:39:02.753Z,15.30
2018-05-03T22:42:25.974Z,15.20
2018-05-03T22:45:48.449Z,15.30
2018-05-03T22:49:10.894Z,15.20
2018-05-03T22:52:33.340Z,15.20
2018-05-03T22:55:55.814Z,15.20
2018-05-03T22:59:19.021Z,15.10
2018-05-03T23:02:41.465Z,15.10
2018-05-03T23:06:03.921Z,15.00
2018-05-03T23:09:26.361Z,15.00
2018-05-03T23:12:49.576Z,14.90
2018-05-03T23:16:12.018Z,14.90
2018-05-03T23:19:35.226Z,14.90
2018-05-03T23:22:57.705Z,14.90
2018-05-03T23:26:20.136Z,14.90
2018-05-03T23:29:42.599Z,14.80
2018-05-03T23:33:05.797Z,14.70
2018-05-03T23:36:28.246Z,14.60
2018-05-03T23:39:51.457Z,14.50
2018-05-03T23:43:13.898Z,14.50
2018-05-03T23:46:36.341Z,14.50
2018-05-03T23:49:59.560Z,14.40
2018-05-03T23:53:21.990Z,14.40
2018-05-03T23:56:45.208Z,14.30
